Aktuální počasí v Tlučné 

Teplota 15.6 °C
Minimální teplota 11.0 °C Maximální teplota 16.9 °C
Teplota rosného bodu 12.3 °C Pocitová teplota 15.6 °C
Tlak 1016.4 hPa
Směr a rychlost větru SE 1.5 m/s
» 2.0 m/s
vlhkost 80.8 %
Teplota 0.0  mm/h
SlunceUV3.3 dnes zítra
↑ 06:58 ↑ 07:00
↓ 18:58 ↓ 18:56
   
Měsíc dnes zítra
↑ 12:17 ↑ 13:15
↓ 21:51 ↓ 22:28
   
Historie naměřených hodnot
 
  LKLN Metar
  LKLN Metar
2017/09/25 11:00
LKLN 251100Z AUTO VRB01KT 9999 OVC033 14/11 Q1021
Rychlost a směr větru Proměnlivý
1.9 km/h
--
10 km
32805.1 ft
Zataženo (1006 m)
Teplota 14 °C
Rosný bod 11°C
 
Tlak 1021 hPa
765.8 mmHg
 
  YR.no meteogram
  YR.no meteogram
Meteogram YR.no
  Kalendář alergenů
  Kalendář alergenů
kalendar
  IN-Pocasi.cz
  IN-Pocasi.cz
In-Pocasi logo




  PocasiIdnes     CHMI     MeteoPress     Radar     Radar2  


  Valid XHTML 1.0 Transitional  


Provozni a servisni denik

Popis

ČKD / FAQ